createdAt,value
2019-01-10T00:02:01.147Z,104.12
2019-01-10T00:04:32.631Z,106.03
2019-01-10T00:07:04.149Z,108.00
2019-01-10T00:09:35.413Z,108.50
2019-01-10T00:12:06.532Z,111.77
2019-01-10T00:14:39.168Z,109.30
2019-01-10T00:17:10.312Z,106.58
2019-01-10T00:19:41.358Z,110.57
2019-01-10T00:22:12.370Z,104.53
2019-01-10T00:24:43.615Z,103.50
2019-01-10T00:27:14.621Z,108.47
2019-01-10T00:29:46.017Z,105.37
2019-01-10T00:32:17.394Z,105.10
2019-01-10T00:34:48.592Z,105.80
2019-01-10T00:37:20.278Z,107.93
2019-01-10T00:39:51.598Z,105.07
2019-01-10T00:42:22.646Z,107.97
2019-01-10T00:44:54.434Z,102.13
2019-01-10T00:47:25.967Z,100.97
2019-01-10T00:49:57.150Z,100.43
2019-01-10T00:52:28.672Z,101.67
2019-01-10T00:55:01.679Z,104.63
2019-01-10T00:57:33.028Z,100.33
2019-01-10T01:00:05.640Z,105.50
2019-01-10T01:02:36.991Z,102.77
2019-01-10T01:05:10.079Z,108.27
2019-01-10T01:07:42.282Z,110.97
2019-01-10T01:10:17.232Z,106.83
2019-01-10T01:12:48.527Z,109.67
2019-01-10T01:15:20.168Z,110.90
2019-01-10T01:17:51.666Z,111.80
2019-01-10T01:20:24.392Z,110.63
2019-01-10T01:22:55.866Z,113.07
2019-01-10T01:25:27.112Z,111.83
2019-01-10T01:27:58.503Z,108.03
2019-01-10T01:30:30.014Z,107.83
2019-01-10T01:33:02.392Z,102.00
2019-01-10T01:35:35.657Z,108.23
2019-01-10T01:38:07.137Z,113.25
2019-01-10T01:40:38.652Z,113.57
2019-01-10T01:43:09.803Z,108.90
2019-01-10T01:45:41.095Z,109.27
2019-01-10T01:48:13.025Z,109.85
2019-01-10T01:50:44.086Z,113.93
2019-01-10T01:53:15.334Z,115.20
2019-01-10T01:55:46.606Z,119.67
2019-01-10T01:58:17.845Z,121.72
2019-01-10T02:00:49.711Z,127.67
2019-01-10T02:03:21.777Z,126.33
2019-01-10T02:05:53.245Z,119.83
2019-01-10T02:08:24.359Z,117.13
2019-01-10T02:10:55.747Z,116.40
2019-01-10T02:13:26.832Z,120.17
2019-01-10T02:15:59.364Z,118.87
2019-01-10T02:18:30.360Z,118.40
2019-01-10T02:21:01.800Z,120.40
2019-01-10T02:23:33.074Z,118.33
2019-01-10T02:26:04.229Z,125.17
2019-01-10T02:28:35.893Z,122.27
2019-01-10T02:31:07.723Z,111.70
2019-01-10T02:33:38.962Z,106.97
2019-01-10T02:36:10.068Z,100.70
2019-01-10T02:38:41.432Z,101.83
2019-01-10T02:41:12.775Z,102.27
2019-01-10T02:43:44.399Z,104.63
2019-01-10T02:46:15.604Z,111.50
2019-01-10T02:48:46.727Z,106.13
2019-01-10T02:51:17.921Z,93.37
2019-01-10T02:53:49.126Z,95.63
2019-01-10T02:56:20.197Z,92.07
2019-01-10T02:58:51.443Z,93.00
2019-01-10T03:01:23.076Z,95.90
2019-01-10T03:03:54.205Z,95.07
2019-01-10T03:06:25.507Z,90.57
2019-01-10T03:08:58.082Z,90.83
2019-01-10T03:11:29.123Z,91.33
2019-01-10T03:14:00.130Z,86.77
2019-01-10T03:16:33.337Z,92.17
2019-01-10T03:19:04.719Z,92.57
2019-01-10T03:21:36.336Z,93.03
2019-01-10T03:24:07.877Z,94.17
2019-01-10T03:26:39.010Z,92.23
2019-01-10T03:29:11.662Z,93.10
2019-01-10T03:31:43.515Z,91.32
2019-01-10T03:34:14.522Z,86.12
2019-01-10T03:36:45.731Z,94.07
2019-01-10T03:39:16.978Z,85.67
2019-01-10T03:41:48.599Z,82.33
2019-01-10T03:44:19.733Z,84.50
2019-01-10T03:46:50.988Z,87.40
2019-01-10T03:49:22.264Z,84.37
2019-01-10T03:51:53.432Z,79.10
2019-01-10T03:54:24.694Z,83.67
2019-01-10T03:56:55.847Z,76.93
2019-01-10T03:59:27.072Z,81.13
2019-01-10T04:01:58.469Z,79.57
2019-01-10T04:04:29.725Z,79.37
2019-01-10T04:07:01.467Z,77.40
2019-01-10T04:09:34.819Z,77.67
2019-01-10T04:12:06.158Z,76.33
2019-01-10T04:14:37.399Z,73.23
2019-01-10T04:17:08.431Z,74.73
2019-01-10T04:19:39.669Z,76.20
2019-01-10T04:22:11.225Z,75.08
2019-01-10T04:24:42.367Z,76.43
2019-01-10T04:27:13.605Z,77.37
2019-01-10T04:29:45.019Z,82.93
2019-01-10T04:32:16.144Z,79.40
2019-01-10T04:34:47.392Z,80.43
2019-01-10T04:37:18.805Z,84.35
2019-01-10T04:39:50.002Z,82.90
2019-01-10T04:42:21.849Z,82.37
2019-01-10T04:44:55.493Z,87.03
2019-01-10T04:47:27.021Z,87.87
2019-01-10T04:49:58.110Z,88.80
2019-01-10T04:52:29.600Z,85.23
2019-01-10T04:55:00.836Z,86.70
2019-01-10T04:57:32.158Z,89.97
2019-01-10T05:00:04.192Z,90.13
2019-01-10T05:02:35.805Z,89.43
2019-01-10T05:05:07.105Z,86.50
2019-01-10T05:07:39.651Z,87.90
2019-01-10T05:10:11.243Z,93.93
2019-01-10T05:12:43.416Z,92.73
2019-01-10T05:15:14.654Z,96.05
2019-01-10T05:17:46.368Z,89.97
2019-01-10T05:20:19.298Z,89.13
2019-01-10T05:22:51.639Z,85.33
2019-01-10T05:25:23.214Z,84.80
2019-01-10T05:27:55.286Z,83.83
2019-01-10T05:30:27.877Z,85.27
2019-01-10T05:32:58.998Z,81.17
2019-01-10T05:35:30.025Z,80.13
2019-01-10T05:38:01.466Z,79.67
2019-01-10T05:40:32.604Z,76.20
2019-01-10T05:43:03.996Z,73.13
2019-01-10T05:45:35.803Z,61.20
2019-01-10T05:48:07.276Z,56.10
2019-01-10T05:50:38.521Z,57.90
2019-01-10T05:53:09.576Z,59.97
2019-01-10T05:55:40.679Z,61.57
2019-01-10T05:58:11.838Z,67.87
2019-01-10T06:00:42.855Z,60.48
2019-01-10T06:03:14.108Z,59.77
2019-01-10T06:05:46.203Z,59.50
2019-01-10T06:08:17.739Z,59.07
2019-01-10T06:10:48.840Z,61.03
2019-01-10T06:13:20.155Z,61.67
2019-01-10T06:15:51.454Z,59.33
2019-01-10T06:18:22.916Z,62.47
2019-01-10T06:20:54.283Z,60.93
2019-01-10T06:23:27.880Z,60.57
2019-01-10T06:25:58.939Z,63.03
2019-01-10T06:28:30.083Z,59.30
2019-01-10T06:31:01.068Z,57.27
2019-01-10T06:33:32.111Z,55.07
2019-01-10T06:36:03.285Z,56.70
2019-01-10T06:38:35.474Z,55.87
2019-01-10T06:41:06.806Z,56.07
2019-01-10T06:43:38.575Z,53.70
2019-01-10T06:46:09.963Z,55.75
2019-01-10T06:48:41.765Z,57.40
2019-01-10T06:51:12.772Z,54.85
2019-01-10T06:53:43.934Z,57.50
2019-01-10T06:56:14.913Z,57.13
2019-01-10T06:58:46.311Z,55.80
2019-01-10T07:01:17.460Z,58.48
2019-01-10T07:03:50.129Z,57.87
2019-01-10T07:06:21.236Z,58.38
2019-01-10T07:08:52.795Z,56.90
2019-01-10T07:11:23.786Z,57.30
2019-01-10T07:13:55.077Z,57.57
2019-01-10T07:16:26.429Z,59.07
2019-01-10T07:18:57.609Z,58.47
2019-01-10T07:21:31.498Z,58.70
2019-01-10T07:24:02.584Z,58.58
2019-01-10T07:26:33.767Z,58.43
2019-01-10T07:29:09.211Z,59.93
2019-01-10T07:31:40.604Z,59.87
2019-01-10T07:34:11.765Z,60.90
2019-01-10T07:36:46.212Z,58.47
2019-01-10T07:39:17.593Z,58.30
2019-01-10T07:41:49.901Z,59.77
2019-01-10T07:44:25.296Z,58.57
2019-01-10T07:46:56.473Z,59.80
2019-01-10T07:49:27.915Z,60.73
2019-01-10T07:52:00.102Z,59.63
2019-01-10T07:54:31.250Z,58.47
2019-01-10T07:57:03.822Z,60.23
2019-01-10T07:59:34.882Z,57.50
2019-01-10T08:02:06.130Z,58.53
2019-01-10T08:04:38.672Z,60.33
2019-01-10T08:07:09.915Z,59.13
2019-01-10T08:09:41.401Z,60.13
2019-01-10T08:12:12.616Z,60.80
2019-01-10T08:14:43.892Z,63.10
2019-01-10T08:17:16.135Z,63.42
2019-01-10T08:19:49.428Z,65.13
2019-01-10T08:22:27.721Z,63.28
2019-01-10T08:24:54.415Z,63.03
2019-01-10T08:27:25.619Z,63.83
2019-01-10T08:29:59.556Z,64.33
2019-01-10T08:32:30.708Z,62.60
2019-01-10T08:35:01.964Z,59.60
2019-01-10T08:37:34.573Z,63.07
2019-01-10T08:40:07.050Z,63.52
2019-01-10T08:42:38.510Z,63.53
2019-01-10T08:45:10.857Z,63.30
2019-01-10T08:47:42.309Z,61.67
2019-01-10T08:50:19.051Z,66.43
2019-01-10T08:52:50.198Z,63.77
2019-01-10T08:55:21.525Z,66.67
2019-01-10T08:57:54.748Z,65.20
2019-01-10T09:00:27.677Z,61.07
2019-01-10T09:02:58.696Z,61.83
2019-01-10T09:05:31.644Z,63.08
2019-01-10T09:08:02.614Z,59.07
2019-01-10T09:10:35.238Z,59.13
2019-01-10T09:13:06.645Z,60.37
2019-01-10T09:15:37.961Z,59.80
2019-01-10T09:18:10.415Z,62.73
2019-01-10T09:20:41.428Z,62.80
2019-01-10T09:23:12.537Z,65.43
2019-01-10T09:25:44.048Z,66.33
2019-01-10T09:28:15.238Z,64.47
2019-01-10T09:30:46.896Z,64.17
2019-01-10T09:33:18.159Z,63.43
2019-01-10T09:35:49.172Z,63.63
2019-01-10T09:38:21.108Z,64.37
2019-01-10T09:40:52.352Z,63.70
2019-01-10T09:43:23.937Z,60.50
2019-01-10T09:45:55.103Z,60.63
2019-01-10T09:48:26.203Z,65.93
2019-01-10T09:50:57.423Z,69.40
2019-01-10T09:53:29.091Z,63.73
2019-01-10T09:56:00.213Z,62.17
2019-01-10T09:58:32.818Z,59.60
2019-01-10T10:01:04.219Z,59.07
2019-01-10T10:03:35.527Z,59.33
2019-01-10T10:06:08.002Z,60.17
2019-01-10T10:08:39.528Z,62.00
2019-01-10T10:11:10.611Z,61.97
2019-01-10T10:13:41.691Z,58.50
2019-01-10T10:16:12.799Z,57.77
2019-01-10T10:18:43.924Z,57.30
2019-01-10T10:21:15.039Z,59.40
2019-01-10T10:23:46.163Z,60.77
2019-01-10T10:26:17.853Z,59.75
2019-01-10T10:28:49.424Z,59.50
2019-01-10T10:31:20.738Z,58.20
2019-01-10T10:33:52.035Z,59.13
2019-01-10T10:36:23.039Z,58.83
2019-01-10T10:38:54.510Z,61.30
2019-01-10T10:41:25.780Z,62.07
2019-01-10T10:43:56.876Z,66.77
2019-01-10T10:46:28.036Z,68.97
2019-01-10T10:48:59.243Z,69.50
2019-01-10T10:51:31.841Z,72.77
2019-01-10T10:54:03.372Z,75.20
2019-01-10T10:56:34.580Z,69.45
2019-01-10T10:59:05.982Z,69.53
2019-01-10T11:01:37.544Z,74.83
2019-01-10T11:04:08.629Z,74.93
2019-01-10T11:06:39.731Z,74.10
2019-01-10T11:09:11.387Z,78.13
2019-01-10T11:11:44.271Z,73.53
2019-01-10T11:14:15.283Z,76.00
2019-01-10T11:16:46.540Z,73.00
2019-01-10T11:19:17.626Z,75.07
2019-01-10T11:21:49.005Z,77.25
2019-01-10T11:24:20.688Z,80.27
2019-01-10T11:26:53.479Z,80.73
2019-01-10T11:29:24.833Z,76.63
2019-01-10T11:31:55.861Z,77.85
2019-01-10T11:34:27.270Z,68.47
2019-01-10T11:36:58.412Z,68.57
2019-01-10T11:39:29.648Z,66.17
2019-01-10T11:42:01.244Z,66.20
2019-01-10T11:44:32.660Z,61.13
2019-01-10T11:47:03.811Z,63.13
2019-01-10T11:49:34.923Z,58.40
2019-01-10T11:52:07.317Z,57.33
2019-01-10T11:54:38.412Z,62.40
2019-01-10T11:57:09.597Z,60.03
2019-01-10T11:59:40.782Z,58.67
2019-01-10T12:02:12.454Z,56.97
2019-01-10T12:04:43.697Z,56.65
2019-01-10T12:07:16.278Z,54.95
2019-01-10T12:09:47.462Z,55.67
2019-01-10T12:12:19.829Z,53.50
2019-01-10T12:14:50.798Z,53.33
2019-01-10T12:17:22.989Z,52.93
2019-01-10T12:19:54.224Z,49.50
2019-01-10T12:22:25.402Z,51.27
2019-01-10T12:24:56.932Z,52.53
2019-01-10T12:27:28.895Z,54.77
2019-01-10T12:30:01.786Z,55.70
2019-01-10T12:32:34.208Z,55.87
2019-01-10T12:35:07.606Z,47.63
2019-01-10T12:37:39.257Z,49.80
2019-01-10T12:40:12.120Z,42.83
2019-01-10T12:42:43.761Z,45.17
2019-01-10T12:45:16.245Z,46.20
2019-01-10T12:47:48.825Z,43.80
2019-01-10T12:50:25.521Z,41.73
2019-01-10T12:52:56.707Z,43.05
2019-01-10T12:55:27.899Z,45.13
2019-01-10T12:57:59.408Z,48.93
2019-01-10T13:00:30.522Z,49.40
2019-01-10T13:03:01.852Z,47.40
2019-01-10T13:05:33.049Z,45.70
2019-01-10T13:08:05.905Z,47.23
2019-01-10T13:10:37.004Z,48.75
2019-01-10T13:13:08.308Z,47.83
2019-01-10T13:15:39.450Z,50.80
2019-01-10T13:18:10.534Z,47.67
2019-01-10T13:20:42.076Z,48.20
2019-01-10T13:23:13.189Z,50.50
2019-01-10T13:25:44.646Z,50.00
2019-01-10T13:28:16.129Z,50.30
2019-01-10T13:30:47.434Z,48.83
2019-01-10T13:33:18.512Z,47.73
2019-01-10T13:35:49.966Z,49.83
2019-01-10T13:38:21.034Z,49.40
2019-01-10T13:40:52.768Z,49.10
2019-01-10T13:43:24.031Z,49.53
2019-01-10T13:45:55.484Z,50.43
2019-01-10T13:48:26.926Z,49.95
2019-01-10T13:50:58.150Z,49.90
2019-01-10T13:53:30.277Z,50.13
2019-01-10T13:56:03.054Z,51.13
2019-01-10T13:58:34.668Z,51.80
2019-01-10T14:01:06.730Z,52.73
2019-01-10T14:03:38.093Z,50.53
2019-01-10T14:06:10.647Z,51.63
2019-01-10T14:08:41.787Z,49.80
2019-01-10T14:11:13.112Z,52.03
2019-01-10T14:13:44.239Z,51.37
2019-01-10T14:16:15.444Z,53.48
2019-01-10T14:18:46.748Z,59.13
2019-01-10T14:21:18.058Z,56.35
2019-01-10T14:23:51.449Z,59.77
2019-01-10T14:26:22.989Z,57.58
2019-01-10T14:28:54.166Z,66.50
2019-01-10T14:31:25.415Z,75.87
2019-01-10T14:33:56.573Z,66.50
2019-01-10T14:36:27.946Z,61.97
2019-01-10T14:39:00.575Z,58.57
2019-01-10T14:41:31.866Z,56.70
2019-01-10T14:44:04.005Z,56.47
2019-01-10T14:46:35.087Z,55.10
2019-01-10T14:49:06.479Z,56.03
2019-01-10T14:51:37.908Z,58.28
2019-01-10T14:54:09.596Z,57.03
2019-01-10T14:56:41.750Z,58.07
2019-01-10T14:59:14.038Z,60.23
2019-01-10T15:01:45.310Z,59.20
2019-01-10T15:04:16.788Z,59.13
2019-01-10T15:06:49.533Z,58.80
2019-01-10T15:09:22.115Z,61.97
2019-01-10T15:11:53.315Z,63.37
2019-01-10T15:14:24.688Z,62.53
2019-01-10T15:16:55.859Z,65.27
2019-01-10T15:19:27.321Z,67.83
2019-01-10T15:21:59.122Z,63.23
2019-01-10T15:24:30.477Z,62.17
2019-01-10T15:27:01.661Z,64.50
2019-01-10T15:29:33.685Z,63.42
2019-01-10T15:32:05.274Z,62.15
2019-01-10T15:34:36.419Z,62.53
2019-01-10T15:37:07.968Z,62.60
2019-01-10T15:39:39.380Z,64.40
2019-01-10T15:42:10.715Z,63.45
2019-01-10T15:44:42.000Z,60.63
2019-01-10T15:47:13.039Z,62.07
2019-01-10T15:49:44.322Z,64.55
2019-01-10T15:52:15.559Z,65.83
2019-01-10T15:54:47.194Z,68.05
2019-01-10T15:57:19.183Z,67.00
2019-01-10T15:59:50.491Z,66.67
2019-01-10T16:02:22.330Z,71.70
2019-01-10T16:04:53.795Z,69.20
2019-01-10T16:07:24.863Z,69.77
2019-01-10T16:09:57.623Z,68.90
2019-01-10T16:12:28.588Z,66.50
2019-01-10T16:14:59.920Z,66.80
2019-01-10T16:17:31.026Z,65.50
2019-01-10T16:20:03.408Z,62.50
2019-01-10T16:22:34.511Z,64.87
2019-01-10T16:25:07.179Z,67.05
2019-01-10T16:27:38.843Z,65.07
2019-01-10T16:30:16.163Z,63.97
2019-01-10T16:32:48.932Z,61.60
2019-01-10T16:35:20.168Z,60.70
2019-01-10T16:37:51.284Z,60.17
2019-01-10T16:40:22.578Z,56.68
2019-01-10T16:42:55.071Z,54.10
2019-01-10T16:45:30.727Z,54.87
2019-01-10T16:48:03.599Z,55.27
2019-01-10T16:50:35.133Z,53.03
2019-01-10T16:53:06.352Z,52.03
2019-01-10T16:55:38.362Z,50.93
2019-01-10T16:58:09.427Z,48.63
2019-01-10T17:00:40.744Z,50.03
2019-01-10T17:03:12.622Z,49.33
2019-01-10T17:05:43.683Z,49.33
2019-01-10T17:08:15.067Z,51.23
2019-01-10T17:10:46.072Z,49.70
2019-01-10T17:13:17.208Z,51.28
2019-01-10T17:15:48.425Z,52.57
2019-01-10T17:18:19.482Z,52.27
2019-01-10T17:20:52.006Z,51.73
2019-01-10T17:23:23.296Z,47.77
2019-01-10T17:25:54.563Z,46.53
2019-01-10T17:28:25.553Z,47.43
2019-01-10T17:30:56.996Z,49.45
2019-01-10T17:33:28.146Z,50.37
2019-01-10T17:35:59.464Z,51.07
2019-01-10T17:38:30.646Z,51.37
2019-01-10T17:41:02.023Z,50.25
2019-01-10T17:43:33.340Z,52.50
2019-01-10T17:46:04.813Z,52.87
2019-01-10T17:48:37.049Z,54.20
2019-01-10T17:51:09.143Z,51.60
2019-01-10T17:53:40.267Z,54.93
2019-01-10T17:56:11.585Z,53.40
2019-01-10T17:58:42.960Z,54.42
2019-01-10T18:01:15.125Z,55.77
2019-01-10T18:03:47.319Z,55.03
2019-01-10T18:06:18.515Z,56.77
2019-01-10T18:08:51.014Z,57.87
2019-01-10T18:11:22.159Z,56.10
2019-01-10T18:13:53.403Z,57.67
2019-01-10T18:16:24.629Z,58.60
2019-01-10T18:18:55.792Z,58.75
2019-01-10T18:21:27.652Z,55.50
2019-01-10T18:23:58.898Z,58.80
2019-01-10T18:26:30.242Z,59.00
2019-01-10T18:29:01.191Z,61.87
2019-01-10T18:31:32.210Z,58.27
2019-01-10T18:34:03.351Z,61.13
2019-01-10T18:36:34.374Z,61.37
2019-01-10T18:39:08.273Z,59.97
2019-01-10T18:41:39.982Z,58.00
2019-01-10T18:44:12.258Z,60.07
2019-01-10T18:46:43.372Z,61.37
2019-01-10T18:49:14.507Z,57.93
2019-01-10T18:51:45.635Z,62.23
2019-01-10T18:54:16.888Z,58.67
2019-01-10T18:56:48.961Z,62.80
2019-01-10T18:59:19.968Z,60.83
2019-01-10T19:01:51.310Z,62.63
2019-01-10T19:04:22.818Z,63.27
2019-01-10T19:06:54.008Z,62.83
2019-01-10T19:09:27.613Z,65.97
2019-01-10T19:11:58.671Z,66.13
2019-01-10T19:14:30.035Z,64.77
2019-01-10T19:17:01.964Z,65.87
2019-01-10T19:19:34.990Z,67.03
2019-01-10T19:22:06.592Z,63.53
2019-01-10T19:24:38.256Z,65.40
2019-01-10T19:27:09.306Z,65.37
2019-01-10T19:29:40.470Z,66.43
2019-01-10T19:32:11.683Z,64.82
2019-01-10T19:34:42.875Z,66.13
2019-01-10T19:37:14.032Z,65.80
2019-01-10T19:39:45.226Z,67.77
2019-01-10T19:42:16.400Z,64.42
2019-01-10T19:44:47.736Z,65.07
2019-01-10T19:47:18.971Z,68.65
2019-01-10T19:49:50.186Z,65.40
2019-01-10T19:52:21.401Z,67.65
2019-01-10T19:54:53.488Z,72.77
2019-01-10T19:57:24.742Z,67.83
2019-01-10T19:59:55.736Z,68.02
2019-01-10T20:02:27.255Z,69.40
2019-01-10T20:04:58.577Z,67.40
2019-01-10T20:07:29.805Z,63.57
2019-01-10T20:10:01.007Z,64.30
2019-01-10T20:12:33.063Z,64.67
2019-01-10T20:15:04.649Z,61.30
2019-01-10T20:17:37.612Z,60.53
2019-01-10T20:20:14.291Z,59.77
2019-01-10T20:22:45.874Z,57.47
2019-01-10T20:25:16.982Z,59.53
2019-01-10T20:27:48.307Z,62.40
2019-01-10T20:30:20.037Z,66.17
2019-01-10T20:32:51.299Z,64.63
2019-01-10T20:35:22.555Z,61.05
2019-01-10T20:37:53.820Z,64.97
2019-01-10T20:40:24.830Z,64.47
2019-01-10T20:42:55.968Z,60.07
2019-01-10T20:45:27.129Z,63.27
2019-01-10T20:47:58.238Z,62.77
2019-01-10T20:50:29.493Z,62.53
2019-01-10T20:53:00.755Z,64.47
2019-01-10T20:55:32.061Z,64.80
2019-01-10T20:58:03.550Z,64.70
2019-01-10T21:00:34.548Z,64.93
2019-01-10T21:03:06.153Z,66.22
2019-01-10T21:05:38.053Z,67.77
2019-01-10T21:08:09.111Z,67.47
2019-01-10T21:10:40.845Z,66.83
2019-01-10T21:13:12.149Z,67.03
2019-01-10T21:15:43.601Z,65.40
2019-01-10T21:18:15.630Z,68.25
2019-01-10T21:20:47.618Z,73.40
2019-01-10T21:23:20.463Z,76.77
2019-01-10T21:25:52.151Z,77.33
2019-01-10T21:28:24.513Z,73.73
2019-01-10T21:30:55.901Z,80.05
2019-01-10T21:33:27.368Z,74.87
2019-01-10T21:35:59.087Z,74.47
2019-01-10T21:38:30.483Z,74.17
2019-01-10T21:41:03.346Z,73.00
2019-01-10T21:43:34.663Z,73.73
2019-01-10T21:46:06.343Z,76.05
2019-01-10T21:48:37.555Z,74.27
2019-01-10T21:51:09.019Z,78.62
2019-01-10T21:53:41.595Z,77.33
2019-01-10T21:56:12.675Z,74.45
2019-01-10T21:58:43.755Z,76.55
2019-01-10T22:01:15.008Z,75.03
2019-01-10T22:03:46.373Z,76.07
2019-01-10T22:06:18.150Z,77.13
2019-01-10T22:08:49.642Z,75.23
2019-01-10T22:11:21.013Z,75.13
2019-01-10T22:13:52.359Z,76.07
2019-01-10T22:16:23.754Z,78.87
2019-01-10T22:18:55.972Z,76.73
2019-01-10T22:21:27.314Z,78.97
2019-01-10T22:24:01.123Z,75.87
2019-01-10T22:26:32.290Z,76.90
2019-01-10T22:29:05.131Z,76.97
2019-01-10T22:31:37.688Z,77.60
2019-01-10T22:34:09.189Z,72.65
2019-01-10T22:36:40.704Z,77.57
2019-01-10T22:39:12.190Z,75.83
2019-01-10T22:41:43.512Z,78.37
2019-01-10T22:44:14.854Z,80.92
2019-01-10T22:46:46.290Z,85.07
2019-01-10T22:49:18.041Z,80.03
2019-01-10T22:51:49.643Z,78.47
2019-01-10T22:54:21.303Z,78.02
2019-01-10T22:56:52.732Z,78.07
2019-01-10T22:59:24.291Z,78.30
2019-01-10T23:01:57.882Z,76.27
2019-01-10T23:04:33.168Z,77.23
2019-01-10T23:07:09.577Z,79.17
2019-01-10T23:09:41.135Z,78.00
2019-01-10T23:12:12.481Z,74.67
2019-01-10T23:14:43.699Z,75.10
2019-01-10T23:17:15.300Z,76.70
2019-01-10T23:19:53.444Z,72.60
2019-01-10T23:22:24.838Z,72.17
2019-01-10T23:24:57.982Z,73.57
2019-01-10T23:27:29.224Z,75.00
2019-01-10T23:30:01.102Z,76.47
2019-01-10T23:32:32.397Z,78.17
2019-01-10T23:35:04.631Z,76.53
2019-01-10T23:37:35.756Z,77.07
2019-01-10T23:40:07.533Z,76.67
2019-01-10T23:42:39.491Z,75.13
2019-01-10T23:45:10.743Z,73.87
2019-01-10T23:47:43.475Z,73.77
2019-01-10T23:50:14.773Z,74.07
2019-01-10T23:52:46.246Z,73.67
2019-01-10T23:55:20.939Z,75.87
2019-01-10T23:57:52.176Z,74.90
